Time;durP1;ratioP1;P1;durP2;ratioP2;P2;SDS_P1;SDS_P2;PMS_P1;PMS_P2;Temp;Humidity;BMP_temperature;BMP_pressure;BME280_temperature;BME280_humidity;BME280_pressure;Samples;Min_cycle;Max_cycle;Signal;HPM_P1;HPM_P2
2023/02/17 00:00:32;;;;;;;24.70;19.42;;;;;;;11.35;77.37;100037.41;5009962;28;20088;-80
2023/02/17 00:02:59;;;;;;;25.50;19.38;;;;;;;11.34;77.31;100035.72;5005140;28;20691;-79
2023/02/17 00:05:26;;;;;;;22.60;19.27;;;;;;;11.35;77.40;100053.22;5011058;28;20049;-80
2023/02/17 00:07:53;;;;;;;26.50;18.60;;;;;;;11.36;77.36;100035.63;5010841;28;20070;-79
2023/02/17 00:10:19;;;;;;;24.83;18.60;;;;;;;11.34;77.43;100040.97;5011443;28;20061;-79
2023/02/17 00:12:46;;;;;;;26.05;19.40;;;;;;;11.37;77.47;100029.41;5011255;28;20050;-80
2023/02/17 00:15:12;;;;;;;23.85;18.77;;;;;;;11.36;77.47;100036.47;5006638;28;20058;-80
2023/02/17 00:17:39;;;;;;;23.95;18.55;;;;;;;11.38;77.55;100036.38;5001998;28;20053;-80
2023/02/17 00:20:06;;;;;;;23.17;18.38;;;;;;;11.39;77.43;100022.25;5011030;28;20590;-80
2023/02/17 00:22:32;;;;;;;25.27;18.60;;;;;;;11.39;77.41;100023.13;5009286;28;20100;-80
2023/02/17 00:24:58;;;;;;;23.45;18.38;;;;;;;11.40;77.40;100024.81;5010827;28;20108;-80
2023/02/17 00:27:25;;;;;;;25.23;19.38;;;;;;;11.42;77.45;100025.59;5010740;28;20057;-81
2023/02/17 00:29:51;;;;;;;22.20;17.60;;;;;;;11.44;77.51;100030.78;5003728;28;20527;-81
2023/02/17 00:32:18;;;;;;;26.38;17.75;;;;;;;11.44;77.57;100028.16;5010952;28;20054;-80
2023/02/17 00:34:44;;;;;;;22.02;17.73;;;;;;;11.46;77.63;100045.56;5010749;28;20050;-80
2023/02/17 00:37:10;;;;;;;25.42;18.15;;;;;;;11.48;77.63;100034.94;5010261;28;20110;-80
2023/02/17 00:39:37;;;;;;;20.10;17.48;;;;;;;11.51;77.61;100015.47;5001944;28;20054;-80
2023/02/17 00:42:03;;;;;;;22.92;17.92;;;;;;;11.51;77.60;100021.56;5010947;28;20054;-80
2023/02/17 00:44:30;;;;;;;21.05;16.10;;;;;;;11.54;77.54;100024.03;5010715;28;20115;-80
2023/02/17 00:46:56;;;;;;;23.48;16.67;;;;;;;11.54;77.45;100018.75;5010048;28;20050;-80
2023/02/17 00:49:25;;;;;;;20.98;16.40;;;;;;;11.54;77.53;100018.75;5007792;28;20420;-80
2023/02/17 00:51:52;;;;;;;21.08;17.63;;;;;;;11.56;77.49;100022.16;5010362;28;20058;-80
2023/02/17 00:54:19;;;;;;;21.48;17.23;;;;;;;11.57;77.47;100018.59;5010789;28;20053;-80
2023/02/17 00:56:45;;;;;;;19.98;16.80;;;;;;;11.58;77.42;100020.28;5002046;28;20058;-80
2023/02/17 00:59:12;;;;;;;23.20;17.38;;;;;;;11.62;77.49;100022.75;5010403;28;20053;-80
2023/02/17 01:01:38;;;;;;;21.25;16.95;;;;;;;11.62;77.41;100015.69;5010477;28;20451;-80
2023/02/17 01:04:05;;;;;;;22.48;18.65;;;;;;;11.62;77.51;100015.69;5005196;28;20060;-80
2023/02/17 01:06:35;;;;;;;25.38;18.77;;;;;;;11.62;77.76;100020.13;5009824;28;20046;-80
2023/02/17 01:09:04;;;;;;;21.60;17.17;;;;;;;11.62;77.49;100018.31;5010398;28;20085;-81
2023/02/17 01:11:32;;;;;;;20.45;16.98;;;;;;;11.63;77.65;100014.78;5010350;28;20066;-79
2023/02/17 01:14:00;;;;;;;23.35;17.02;;;;;;;11.64;77.59;100032.28;5010495;28;20066;-80
2023/02/17 01:16:33;;;;;;;20.60;17.83;;;;;;;11.65;77.44;100018.16;5008738;28;20076;-80
2023/02/17 01:19:05;;;;;;;21.80;18.25;;;;;;;11.63;78.26;100020.03;4998267;28;20550;-80
2023/02/17 01:21:33;;;;;;;21.65;17.40;;;;;;;11.65;77.77;100027.84;5000545;28;20463;-81
2023/02/17 01:24:01;;;;;;;21.02;17.50;;;;;;;11.66;77.68;100021.66;5010505;28;20053;-81
2023/02/17 01:26:30;;;;;;;20.13;17.60;;;;;;;11.66;77.83;100013.75;5005197;28;20428;-80
2023/02/17 01:28:57;;;;;;;21.75;17.75;;;;;;;11.64;77.64;100010.31;5009922;28;20053;-80
2023/02/17 01:31:25;;;;;;;22.50;18.50;;;;;;;11.64;77.80;99998.00;5010016;28;20053;-80
2023/02/17 01:33:55;;;;;;;22.05;18.17;;;;;;;11.65;77.80;100001.47;5003204;28;20053;-80
2023/02/17 01:36:21;;;;;;;20.05;16.80;;;;;;;11.64;77.62;99995.38;5009946;28;20050;-80
2023/02/17 01:38:48;;;;;;;21.60;17.67;;;;;;;11.66;77.62;100006.66;5009999;28;20062;-80
2023/02/17 01:41:17;;;;;;;21.02;17.00;;;;;;;11.67;77.71;100004.88;5010151;28;20061;-80
2023/02/17 01:44:03;;;;;;;21.58;17.42;;;;;;;11.62;78.87;100005.13;5010292;28;20058;-80
2023/02/17 01:46:33;;;;;;;19.67;16.95;;;;;;;11.65;78.12;100004.09;5009942;28;20128;-80
2023/02/17 01:49:03;;;;;;;20.40;16.35;;;;;;;11.65;78.04;99983.00;5004196;28;20053;-80
2023/02/17 01:51:37;;;;;;;20.70;17.17;;;;;;;11.63;78.33;99974.34;5009776;28;20512;-80
2023/02/17 01:54:10;;;;;;;21.40;16.63;;;;;;;11.60;78.47;99959.56;5010018;28;20064;-80
2023/02/17 01:56:41;;;;;;;20.02;16.83;;;;;;;11.62;78.41;99967.38;5000372;28;20049;-80
2023/02/17 01:59:15;;;;;;;19.70;16.85;;;;;;;11.61;78.49;99963.91;5009122;28;20081;-81
2023/02/17 02:01:42;;;;;;;18.02;15.55;;;;;;;11.60;78.38;99944.56;5010137;28;20050;-80
2023/02/17 02:04:09;;;;;;;19.85;17.67;;;;;;;11.58;78.75;99956.16;5010008;28;20674;-80
2023/02/17 02:06:39;;;;;;;19.05;15.27;;;;;;;11.59;78.55;99942.88;5009316;28;20153;-80
2023/02/17 02:09:09;;;;;;;22.88;16.33;;;;;;;11.60;78.62;99938.47;5005113;28;20053;-80
2023/02/17 02:11:36;;;;;;;19.50;16.02;;;;;;;11.63;78.65;99934.81;5012084;28;20057;-80
2023/02/17 02:14:05;;;;;;;20.55;16.02;;;;;;;11.62;78.58;99951.56;5013555;28;20046;-81
2023/02/17 02:16:44;;;;;;;20.40;16.42;;;;;;;11.59;79.08;99940.25;5012980;28;20100;-81
2023/02/17 02:19:17;;;;;;;23.10;16.35;;;;;;;11.65;78.58;99948.72;5013237;28;20509;-81
2023/02/17 02:22:19;;;;;;;19.20;16.70;;;;;;;11.60;79.23;99955.13;5013412;28;20057;-81
2023/02/17 02:24:54;;;;;;;21.20;16.40;;;;;;;11.66;78.78;99956.56;4980451;28;20116;-80
2023/02/17 02:27:31;;;;;;;21.42;17.13;;;;;;;11.64;79.07;99947.03;5012670;28;20046;-81
2023/02/17 02:30:29;;;;;;;20.52;16.48;;;;;;;11.62;79.58;99962.13;5013475;28;20057;-80
2023/02/17 02:33:05;;;;;;;21.23;15.93;;;;;;;11.65;79.18;99954.00;5013018;28;20507;-80
2023/02/17 02:35:54;;;;;;;19.55;16.45;;;;;;;11.67;79.00;99946.88;5012783;28;20073;-80
2023/02/17 02:38:20;;;;;;;16.67;14.65;;;;;;;11.69;78.75;99937.06;5013014;28;20054;-80
2023/02/17 02:40:52;;;;;;;18.30;15.57;;;;;;;11.68;78.74;99930.97;5005293;28;20069;-80
2023/02/17 02:43:19;;;;;;;20.05;16.33;;;;;;;11.70;78.78;99936.16;5013067;28;20737;-80
2023/02/17 02:45:47;;;;;;;18.45;16.45;;;;;;;11.71;78.89;99935.22;5012490;28;20527;-80
2023/02/17 02:48:13;;;;;;;18.67;15.63;;;;;;;11.71;78.78;99925.50;5008314;28;20068;-80
2023/02/17 02:51:11;;;;;;;20.10;16.10;;;;;;;11.69;79.44;99913.34;5012978;28;20522;-80
2023/02/17 02:54:00;;;;;;;17.52;15.07;;;;;;;11.70;79.42;99909.78;5012688;28;20136;-80
2023/02/17 02:56:52;;;;;;;20.77;16.67;;;;;;;11.71;79.33;99898.28;5012409;28;20093;-81
2023/02/17 02:59:44;;;;;;;18.40;15.82;;;;;;;11.70;79.01;99915.88;5012392;28;20137;-80
2023/02/17 03:02:38;;;;;;;18.55;15.70;;;;;;;11.69;79.48;99887.81;5012600;28;20090;-80
2023/02/17 03:05:10;;;;;;;17.77;15.85;;;;;;;11.73;79.03;99885.84;5012029;28;20132;-80
2023/02/17 03:07:42;;;;;;;20.17;16.70;;;;;;;11.70;79.55;99896.59;5012420;28;20101;-80
2023/02/17 03:10:09;;;;;;;20.80;17.95;;;;;;;11.72;79.24;99897.34;5007758;28;20050;-80
2023/02/17 03:12:37;;;;;;;20.13;17.15;;;;;;;11.71;79.10;99885.09;5012374;28;20054;-80
2023/02/17 03:15:21;;;;;;;21.20;17.48;;;;;;;11.70;79.49;99892.16;5006409;28;20054;-80
2023/02/17 03:17:47;;;;;;;19.92;16.77;;;;;;;11.74;79.31;99890.19;5011487;28;20502;-80
2023/02/17 03:20:14;;;;;;;21.67;18.33;;;;;;;11.74;79.33;99890.19;5007840;28;20056;-80
2023/02/17 03:22:45;;;;;;;21.73;17.27;;;;;;;11.75;79.39;99897.16;5011221;28;20119;-80
2023/02/17 03:25:11;;;;;;;20.60;17.08;;;;;;;11.78;79.21;99891.69;5011716;28;20491;-80
2023/02/17 03:27:38;;;;;;;19.80;16.70;;;;;;;11.79;79.03;99896.03;5011560;28;20096;-80
2023/02/17 03:30:05;;;;;;;22.88;17.60;;;;;;;11.80;79.12;99881.06;5011964;28;20057;-80
2023/02/17 03:32:32;;;;;;;20.05;17.27;;;;;;;11.81;79.10;99885.41;5012277;28;20140;-80
2023/02/17 03:34:58;;;;;;;20.75;18.05;;;;;;;11.81;79.07;99875.69;5011904;28;20054;-80
2023/02/17 03:37:25;;;;;;;19.77;16.80;;;;;;;11.83;79.10;99875.59;5011982;28;20061;-80
2023/02/17 03:39:51;;;;;;;19.92;17.52;;;;;;;11.83;79.07;99875.59;5012243;28;20057;-79
2023/02/17 03:42:18;;;;;;;20.23;17.98;;;;;;;11.84;79.09;99872.00;5017443;28;20105;-79
2023/02/17 03:44:44;;;;;;;20.13;17.35;;;;;;;11.83;78.89;99868.56;5018033;28;20057;-79
2023/02/17 03:47:10;;;;;;;21.88;19.17;;;;;;;11.83;78.92;99873.81;5018626;28;20053;-80
2023/02/17 03:49:37;;;;;;;23.13;18.67;;;;;;;11.83;79.08;99863.28;5012240;28;20057;-80
2023/02/17 03:52:05;;;;;;;21.70;17.85;;;;;;;11.84;78.98;99856.19;5011508;28;20530;-80
2023/02/17 03:54:32;;;;;;;19.95;17.48;;;;;;;11.85;78.86;99857.91;5011592;28;20058;-81
2023/02/17 03:56:59;;;;;;;21.20;17.15;;;;;;;11.88;78.86;99859.50;5010782;28;20046;-80
2023/02/17 03:59:26;;;;;;;20.38;17.77;;;;;;;11.88;78.75;99848.97;5011604;28;20062;-80
2023/02/17 04:01:53;;;;;;;20.08;17.63;;;;;;;11.90;78.69;99858.47;5011430;28;20528;-80
2023/02/17 04:04:19;;;;;;;21.70;17.65;;;;;;;11.93;78.54;99850.34;5008153;28;20058;-80
2023/02/17 04:06:46;;;;;;;20.38;16.80;;;;;;;11.92;78.33;99840.75;5010549;28;20081;-80
2023/02/17 04:09:12;;;;;;;18.90;16.65;;;;;;;11.94;78.27;99857.34;5011373;28;20056;-80
2023/02/17 04:11:39;;;;;;;19.73;17.55;;;;;;;11.94;78.00;99865.25;5011053;28;20096;-80
2023/02/17 04:14:05;;;;;;;22.63;18.38;;;;;;;11.96;78.07;99879.19;5011426;28;20128;-80
2023/02/17 04:16:32;;;;;;;20.92;17.65;;;;;;;11.97;78.11;99867.69;5009210;28;20054;-80
2023/02/17 04:18:58;;;;;;;19.52;16.63;;;;;;;11.98;77.91;99860.63;5011259;28;20062;-80
2023/02/17 04:21:25;;;;;;;20.73;16.83;;;;;;;11.98;78.07;99874.69;5011146;28;20050;-80
2023/02/17 04:23:53;;;;;;;22.50;17.17;;;;;;;11.99;77.81;99835.94;5011062;28;20057;-80
2023/02/17 04:26:20;;;;;;;20.90;17.13;;;;;;;11.98;77.71;99844.81;5007198;28;20064;-80
2023/02/17 04:28:46;;;;;;;21.02;18.05;;;;;;;11.97;77.53;99817.56;5002956;28;20104;-80
2023/02/17 04:31:13;;;;;;;22.35;17.35;;;;;;;12.00;77.60;99829.72;5011002;28;20108;-80
2023/02/17 04:33:39;;;;;;;19.38;16.98;;;;;;;11.99;77.36;99815.69;5010731;28;20066;-80
2023/02/17 04:36:06;;;;;;;22.40;17.80;;;;;;;11.99;77.24;99820.97;5010545;28;20076;-80
2023/02/17 04:38:33;;;;;;;22.77;18.23;;;;;;;11.99;77.32;99828.88;5010492;28;20081;-80
2023/02/17 04:41:01;;;;;;;23.98;18.92;;;;;;;11.99;77.22;99823.59;5004819;28;20149;-80
2023/02/17 04:43:28;;;;;;;22.98;17.92;;;;;;;12.02;77.13;99842.81;5011072;28;20053;-80
2023/02/17 04:45:55;;;;;;;22.95;18.20;;;;;;;12.01;77.11;99833.22;5003902;28;20068;-80
2023/02/17 04:48:21;;;;;;;23.45;18.45;;;;;;;12.02;77.07;99827.84;5010293;28;20050;-80
2023/02/17 04:50:48;;;;;;;22.70;18.60;;;;;;;12.03;76.99;99826.06;5010702;28;20057;-80
2023/02/17 04:53:15;;;;;;;22.52;18.50;;;;;;;12.03;77.04;99826.88;5057697;23;20096;-79
2023/02/17 04:55:41;;;;;;;25.02;18.77;;;;;;;12.01;76.95;99836.72;5008349;28;20121;-79
2023/02/17 04:58:08;;;;;;;23.48;18.10;;;;;;;12.03;76.84;99823.44;5010072;28;20137;-80
2023/02/17 05:00:35;;;;;;;24.83;17.60;;;;;;;12.02;76.85;99834.91;4996188;28;20379;-79
2023/02/17 05:03:02;;;;;;;22.67;17.35;;;;;;;12.02;76.64;99837.53;4993462;28;20057;-80
2023/02/17 05:05:28;;;;;;;21.08;17.40;;;;;;;12.02;76.72;99846.31;5010432;28;20050;-79
2023/02/17 05:07:55;;;;;;;20.92;16.90;;;;;;;12.02;76.54;99840.19;5010351;28;20103;-79
2023/02/17 05:10:21;;;;;;;22.58;17.27;;;;;;;12.03;76.35;99826.88;5010780;28;20136;-79
2023/02/17 05:12:49;;;;;;;19.42;16.40;;;;;;;12.02;76.49;99814.66;5002826;28;20050;-79
2023/02/17 05:15:16;;;;;;;24.52;16.92;;;;;;;12.02;76.44;99803.25;5010545;28;20049;-80
2023/02/17 05:17:43;;;;;;;21.60;17.92;;;;;;;12.01;76.13;99812.97;5010480;28;20046;-79
2023/02/17 05:20:10;;;;;;;20.45;16.48;;;;;;;12.01;76.49;99806.81;5010703;28;20064;-79
2023/02/17 05:22:37;;;;;;;18.73;15.63;;;;;;;12.01;76.38;99820.03;5010593;28;20061;-80
2023/02/17 05:25:04;;;;;;;19.05;15.45;;;;;;;12.01;76.25;99818.25;5010320;28;20446;-80
2023/02/17 05:27:31;;;;;;;17.52;15.02;;;;;;;12.01;76.17;99802.41;5010368;28;20140;-80
2023/02/17 05:29:58;;;;;;;19.55;15.10;;;;;;;12.00;76.19;99821.78;5010678;28;20416;-80
2023/02/17 05:32:25;;;;;;;16.50;14.38;;;;;;;12.00;76.25;99811.25;5010724;28;20050;-80
2023/02/17 05:34:51;;;;;;;17.73;14.45;;;;;;;12.01;76.11;99806.81;5010146;28;20054;-79
2023/02/17 05:37:18;;;;;;;18.10;14.93;;;;;;;12.00;75.93;99813.88;5010198;28;20058;-80
2023/02/17 05:39:45;;;;;;;19.50;15.85;;;;;;;11.99;76.00;99804.28;5010378;28;20057;-80
2023/02/17 05:42:11;;;;;;;18.17;15.32;;;;;;;11.98;75.94;99795.53;5010531;28;20513;-80
2023/02/17 05:44:38;;;;;;;17.00;14.73;;;;;;;11.97;75.96;99801.72;5010659;28;20053;-79
2023/02/17 05:47:04;;;;;;;18.30;15.38;;;;;;;11.97;75.97;99791.19;5012781;28;20045;-80
2023/02/17 05:49:31;;;;;;;18.02;16.02;;;;;;;11.96;75.92;99788.66;5014171;28;20058;-79
2023/02/17 05:51:57;;;;;;;18.27;15.43;;;;;;;11.95;75.84;99779.91;5014138;28;20050;-79
2023/02/17 05:54:24;;;;;;;18.05;15.63;;;;;;;11.96;75.63;99778.13;5014142;28;20666;-80
2023/02/17 05:56:50;;;;;;;18.92;15.43;;;;;;;11.94;75.57;99790.53;5013286;28;20418;-80
2023/02/17 05:59:17;;;;;;;17.98;14.98;;;;;;;11.95;75.62;99785.16;5013873;28;20560;-79
2023/02/17 06:01:44;;;;;;;18.77;15.73;;;;;;;11.95;75.48;99779.03;5013810;28;20053;-80
2023/02/17 06:04:10;;;;;;;17.67;14.98;;;;;;;11.95;75.40;99781.69;5013879;28;20144;-80
2023/02/17 06:06:37;;;;;;;19.33;16.83;;;;;;;11.94;75.36;99778.22;5012609;28;20494;-80
2023/02/17 06:09:03;;;;;;;21.05;16.40;;;;;;;11.94;75.42;99783.47;5013769;28;20072;-79
2023/02/17 06:11:30;;;;;;;20.95;16.20;;;;;;;11.93;75.55;99797.59;5013933;28;20116;-80
2023/02/17 06:13:56;;;;;;;20.50;16.70;;;;;;;11.95;75.39;99797.50;5013747;28;20054;-79
2023/02/17 06:16:22;;;;;;;22.33;16.67;;;;;;;11.93;75.42;99816.06;5010458;28;20121;-79
2023/02/17 06:18:49;;;;;;;21.42;17.10;;;;;;;11.93;75.40;99794.94;5013227;28;20061;-80
2023/02/17 06:21:16;;;;;;;21.10;17.30;;;;;;;11.94;75.41;99801.09;5013367;28;20053;-80
2023/02/17 06:23:42;;;;;;;23.95;18.00;;;;;;;11.94;75.39;99793.19;5013658;28;20046;-80
2023/02/17 06:26:09;;;;;;;23.55;18.73;;;;;;;11.93;75.33;99773.03;5013224;28;20058;-80
2023/02/17 06:28:35;;;;;;;22.63;18.00;;;;;;;11.93;75.42;99788.84;5003666;28;20474;-80
2023/02/17 06:31:02;;;;;;;22.27;18.35;;;;;;;11.92;75.25;99787.16;5012480;28;20069;-80
2023/02/17 06:33:29;;;;;;;24.38;17.38;;;;;;;11.92;75.35;99785.34;5013014;28;20133;-79
2023/02/17 06:35:55;;;;;;;23.42;17.73;;;;;;;11.92;75.44;99788.00;4995923;28;20050;-79
2023/02/17 06:38:22;;;;;;;25.23;18.25;;;;;;;11.92;75.53;99790.63;5010956;28;20509;-79
2023/02/17 06:40:48;;;;;;;23.55;17.35;;;;;;;11.91;75.64;99778.38;5013304;28;20049;-80
2023/02/17 06:43:15;;;;;;;24.60;18.05;;;;;;;11.91;75.54;99759.06;5013155;28;20065;-79
2023/02/17 06:45:41;;;;;;;24.35;18.58;;;;;;;11.93;75.53;99778.31;5010873;28;20062;-79
2023/02/17 06:48:08;;;;;;;21.80;17.10;;;;;;;11.92;75.65;99780.06;5006855;28;20052;-79
2023/02/17 06:50:35;;;;;;;23.95;17.80;;;;;;;11.91;75.59;99781.03;5012849;28;20057;-79
2023/02/17 06:53:01;;;;;;;20.33;15.15;;;;;;;11.91;75.65;99791.56;4995477;28;20119;-79
2023/02/17 06:55:28;;;;;;;20.17;15.68;;;;;;;11.90;75.74;99783.75;4995237;28;20064;-79
2023/02/17 06:57:54;;;;;;;17.85;14.50;;;;;;;11.89;75.89;99771.53;5009330;28;20057;-80
2023/02/17 07:00:21;;;;;;;17.70;13.88;;;;;;;11.87;75.95;99790.06;5005163;28;20073;-79
2023/02/17 07:02:48;;;;;;;17.48;13.43;;;;;;;11.84;76.26;99780.56;5006258;28;20521;-79
2023/02/17 07:05:15;;;;;;;20.75;13.90;;;;;;;11.80;76.38;99768.50;5003572;28;20054;-78
2023/02/17 07:07:42;;;;;;;17.70;13.02;;;;;;;11.79;76.57;99756.28;5004723;28;20128;-79
2023/02/17 07:10:09;;;;;;;16.08;12.20;;;;;;;11.77;76.86;99776.59;5006539;28;20513;-79
2023/02/17 07:12:35;;;;;;;18.05;12.85;;;;;;;11.72;77.06;99783.94;5001565;28;20049;-79
2023/02/17 07:15:02;;;;;;;18.83;13.48;;;;;;;11.71;77.11;99766.44;5011393;28;20396;-79
2023/02/17 07:17:29;;;;;;;15.40;12.23;;;;;;;11.70;77.27;99772.66;5011326;28;20058;-79
2023/02/17 07:19:56;;;;;;;15.98;12.25;;;;;;;11.69;77.61;99766.53;5011480;28;20060;-79
2023/02/17 07:22:24;;;;;;;17.38;11.35;;;;;;;11.66;77.76;99772.00;5011831;28;20405;-79
2023/02/17 07:24:51;;;;;;;13.05;10.43;;;;;;;11.65;78.09;99754.47;5011398;28;20054;-78
2023/02/17 07:27:17;;;;;;;18.35;11.60;;;;;;;11.67;77.86;99759.66;5002642;28;20057;-80
2023/02/17 07:29:44;;;;;;;14.77;10.73;;;;;;;11.65;78.10;99762.38;5012318;28;20049;-80
2023/02/17 07:32:11;;;;;;;13.80;10.73;;;;;;;11.66;78.32;99763.25;5009347;28;20042;-79
2023/02/17 07:34:37;;;;;;;14.77;10.55;;;;;;;11.64;78.47;99778.31;4997071;28;20045;-79
2023/02/17 07:37:04;;;;;;;12.20;10.40;;;;;;;11.61;78.77;99752.97;5000979;28;20483;-79
2023/02/17 07:39:31;;;;;;;12.10;9.93;;;;;;;11.62;78.79;99759.94;5000121;28;20521;-79
2023/02/17 07:41:59;;;;;;;11.20;9.13;;;;;;;11.63;78.98;99766.06;5002619;28;20067;-79
2023/02/17 07:44:26;;;;;;;14.13;10.38;;;;;;;11.64;79.13;99763.34;5010706;28;20042;-79
2023/02/17 07:46:53;;;;;;;13.38;10.07;;;;;;;11.64;78.84;99757.22;5001146;28;20109;-79
2023/02/17 07:49:20;;;;;;;13.73;10.40;;;;;;;11.64;79.08;99757.22;5009741;28;20050;-80
2023/02/17 07:51:46;;;;;;;14.90;9.88;;;;;;;11.65;79.05;99764.16;5011937;28;20050;-79
2023/02/17 07:54:13;;;;;;;11.40;8.95;;;;;;;11.66;79.17;99776.44;5010980;28;20132;-79
2023/02/17 07:56:40;;;;;;;14.18;10.50;;;;;;;11.65;79.14;99759.75;4992848;28;20498;-79
2023/02/17 07:59:08;;;;;;;12.90;10.10;;;;;;;11.65;79.24;99750.97;5011310;28;20049;-79
2023/02/17 08:01:35;;;;;;;10.80;9.25;;;;;;;11.66;79.30;99736.88;5010929;28;20481;-79
2023/02/17 08:04:01;;;;;;;13.98;10.45;;;;;;;11.67;79.39;99735.94;5011190;28;20065;-79
2023/02/17 08:06:28;;;;;;;15.35;12.18;;;;;;;11.66;79.65;99727.16;4993212;28;20057;-80
2023/02/17 08:14:28;;;;;;;13.40;11.20;;;;;;;11.68;79.87;99738.47;5005541;28;20084;-79
2023/02/17 08:16:55;;;;;;;14.85;11.13;;;;;;;11.71;79.77;99734.81;4990771;28;20056;-79
2023/02/17 08:19:24;;;;;;;14.40;11.88;;;;;;;11.73;79.72;99735.53;5008038;28;20084;-79
2023/02/17 08:21:55;;;;;;;15.43;12.00;;;;;;;11.72;79.90;99734.72;4991280;28;20046;-81
2023/02/17 08:24:22;;;;;;;17.30;11.20;;;;;;;11.76;79.63;99722.16;5005329;28;20077;-79
2023/02/17 08:26:48;;;;;;;15.35;11.02;;;;;;;11.78;79.63;99741.38;5002074;28;20133;-80
2023/02/17 08:29:16;;;;;;;15.25;11.82;;;;;;;11.78;79.72;99728.19;5001843;28;20110;-80
2023/02/17 08:31:43;;;;;;;15.18;11.73;;;;;;;11.82;79.61;99729.69;5009351;28;20665;-80
2023/02/17 08:34:11;;;;;;;15.00;11.00;;;;;;;11.85;79.60;99731.31;5007741;28;20058;-80
2023/02/17 08:36:38;;;;;;;14.27;11.23;;;;;;;11.86;79.62;99730.34;5008537;28;20446;-80
2023/02/17 08:39:11;;;;;;;16.90;12.38;;;;;;;11.85;79.58;99740.06;5002160;28;20054;-80
2023/02/17 08:41:38;;;;;;;12.75;10.32;;;;;;;11.90;79.44;99734.50;4992238;28;20136;-80
2023/02/17 08:44:11;;;;;;;14.82;11.95;;;;;;;11.90;79.55;99747.69;5011115;28;20482;-80
2023/02/17 08:46:37;;;;;;;;;;;;;;;11.92;79.48;99739.69;5010622;28;20144;-80
2023/02/17 08:49:05;;;;;;;16.77;11.65;;;;;;;11.96;79.24;99749.94;5010799;28;19929;-80
2023/02/17 08:51:33;;;;;;;16.40;12.00;;;;;;;11.94;79.29;99754.47;5010826;28;20133;-80
2023/02/17 08:54:01;;;;;;;15.38;11.20;;;;;;;11.96;79.49;99746.47;5010861;28;20782;-79
2023/02/17 08:56:28;;;;;;;22.02;13.38;;;;;;;11.93;79.57;99754.56;5010592;28;20053;-80
2023/02/17 08:58:55;;;;;;;16.85;12.77;;;;;;;11.96;79.60;99757.00;5010581;28;20046;-80
2023/02/17 09:01:22;;;;;;;17.25;12.40;;;;;;;11.96;79.60;99767.56;5010757;28;20426;-80
2023/02/17 09:03:50;;;;;;;17.80;12.90;;;;;;;11.98;79.58;99786.75;5010676;28;20702;-80
2023/02/17 09:06:18;;;;;;;17.80;12.80;;;;;;;11.98;79.79;99755.97;5010639;28;20065;-80
2023/02/17 09:08:45;;;;;;;18.55;12.50;;;;;;;12.03;79.67;99784.69;5010286;28;20072;-80
2023/02/17 09:11:14;;;;;;;18.50;13.82;;;;;;;12.01;79.71;99760.19;5010815;28;20084;-80
2023/02/17 09:13:41;;;;;;;17.70;13.25;;;;;;;12.03;79.60;99771.50;5001847;28;20116;-80
2023/02/17 09:16:07;;;;;;;17.48;13.90;;;;;;;12.04;79.70;99759.97;5010273;28;20061;-80
2023/02/17 09:18:35;;;;;;;18.27;13.20;;;;;;;12.08;79.54;99777.34;5008815;28;20065;-80
2023/02/17 09:21:10;;;;;;;20.88;14.40;;;;;;;12.08;79.50;99771.25;5013945;28;20136;-80
2023/02/17 09:23:37;;;;;;;18.50;13.45;;;;;;;12.14;79.54;99756.81;5014586;28;20080;-80
2023/02/17 09:26:06;;;;;;;22.17;14.82;;;;;;;12.13;79.50;99774.44;5008911;28;20104;-80
2023/02/17 09:28:34;;;;;;;19.23;14.60;;;;;;;12.17;79.35;99777.72;5014009;28;20482;-80
2023/02/17 09:31:18;;;;;;;19.90;14.23;;;;;;;12.18;79.29;99800.53;5014459;28;20557;-80
2023/02/17 09:33:46;;;;;;;18.95;13.65;;;;;;;12.22;79.20;99789.69;5014378;28;20050;-80
2023/02/17 09:36:16;;;;;;;19.65;13.95;;;;;;;12.23;79.08;99795.81;5014284;28;20057;-80
2023/02/17 09:38:43;;;;;;;20.15;14.40;;;;;;;12.25;79.28;99778.06;5014040;28;20053;-79
2023/02/17 09:41:25;;;;;;;19.38;14.30;;;;;;;12.27;78.95;99777.97;5014381;28;20058;-80
2023/02/17 09:43:53;;;;;;;20.15;14.10;;;;;;;12.31;78.89;99775.06;5014445;28;20054;-80
2023/02/17 09:46:25;;;;;;;19.25;13.27;;;;;;;12.35;78.74;99776.56;5010729;28;20088;-80
2023/02/17 09:48:55;;;;;;;22.05;14.48;;;;;;;12.37;78.64;99782.56;5012076;28;20497;-80
2023/02/17 09:51:30;;;;;;;21.70;14.70;;;;;;;12.39;78.18;99782.47;5007821;28;20477;-80
2023/02/17 09:54:04;;;;;;;18.73;14.38;;;;;;;12.42;78.11;99776.16;4997024;28;20061;-80
2023/02/17 09:56:40;;;;;;;20.83;14.23;;;;;;;12.44;78.15;99768.97;5013042;28;20068;-79
2023/02/17 09:59:44;;;;;;;24.05;14.85;;;;;;;12.44;77.19;99772.47;5013900;28;20064;-80
2023/02/17 10:02:22;;;;;;;20.52;15.18;;;;;;;12.46;77.08;99775.00;4989422;28;20057;-80
2023/02/17 10:04:53;;;;;;;18.92;14.90;;;;;;;12.52;77.86;99745.56;5013779;28;20566;-80
2023/02/17 10:07:29;;;;;;;21.17;14.88;;;;;;;12.54;77.28;99756.88;5010440;28;20054;-77
2023/02/17 10:10:21;;;;;;;19.75;14.27;;;;;;;12.54;76.84;99727.84;5013805;28;20108;-79
2023/02/17 10:12:53;;;;;;;19.55;14.95;;;;;;;12.60;76.78;99739.78;5013713;28;20054;-80
2023/02/17 10:15:28;;;;;;;18.30;14.43;;;;;;;12.62;76.57;99738.75;5012043;28;20058;-81
2023/02/17 10:18:25;;;;;;;19.88;14.23;;;;;;;12.63;76.30;99756.28;5009664;28;20054;-80
2023/02/17 10:21:00;;;;;;;17.77;13.82;;;;;;;12.69;76.30;99714.56;5005273;28;20082;-79
2023/02/17 10:23:28;;;;;;;18.02;13.45;;;;;;;12.72;76.75;99717.00;5002272;28;20149;-80
2023/02/17 10:26:27;;;;;;;17.75;13.68;;;;;;;12.72;75.90;99725.78;5011065;28;20471;-80
2023/02/17 10:28:59;;;;;;;18.98;14.18;;;;;;;12.83;77.16;99727.69;5001328;28;20133;-80
2023/02/17 10:31:43;;;;;;;20.27;13.60;;;;;;;12.83;75.59;99713.63;5012647;28;20137;-80
2023/02/17 10:34:45;;;;;;;19.80;14.15;;;;;;;12.90;76.12;99713.13;5009026;28;20482;-80
2023/02/17 10:37:44;;;;;;;19.33;13.85;;;;;;;12.89;74.70;99756.34;4969479;28;20088;-80
2023/02/17 10:40:22;;;;;;;16.15;12.85;;;;;;;12.97;74.54;99710.06;5013167;28;20380;-79
2023/02/17 10:42:55;;;;;;;16.83;12.60;;;;;;;13.02;75.62;99706.13;5013555;28;20077;-80
2023/02/17 10:45:35;;;;;;;15.38;12.98;;;;;;;13.05;75.23;99723.63;5012755;28;20057;-77
2023/02/17 10:48:05;;;;;;;17.33;12.45;;;;;;;13.09;75.30;99719.78;5012940;28;20062;-78
2023/02/17 10:50:34;;;;;;;18.50;12.68;;;;;;;13.14;75.52;99724.75;5013374;28;20081;-80
2023/02/17 10:56:06;;;;;;;15.63;12.88;;;;;;;13.11;73.92;99727.59;5018945;23;20058;-81
2023/02/17 10:58:43;;;;;;;17.67;12.68;;;;;;;13.14;73.77;99714.19;5020050;28;20312;-81
2023/02/17 11:01:11;;;;;;;15.95;12.23;;;;;;;13.20;74.93;99715.56;5012429;28;20078;-80
2023/02/17 11:03:42;;;;;;;14.95;12.25;;;;;;;13.22;74.96;99727.72;4995530;28;20053;-80
2023/02/17 11:06:19;;;;;;;14.65;12.15;;;;;;;13.25;74.28;99721.38;5012473;28;20052;-81
2023/02/17 11:08:59;;;;;;;14.05;12.07;;;;;;;13.24;73.89;99714.41;5012064;28;20064;-80
2023/02/17 11:11:35;;;;;;;16.13;12.88;;;;;;;13.25;73.58;99716.09;4995262;28;20053;-80
2023/02/17 11:14:07;;;;;;;15.65;12.75;;;;;;;13.32;74.72;99724.44;5012954;28;20048;-80
2023/02/17 11:16:34;;;;;;;15.10;12.48;;;;;;;13.34;74.66;99719.91;5012006;28;20100;-80
2023/02/17 11:19:01;;;;;;;14.27;11.88;;;;;;;13.39;74.90;99694.81;5012665;28;20062;-81
2023/02/17 11:21:29;;;;;;;17.48;12.52;;;;;;;13.40;74.59;99701.81;5012508;28;20085;-81
2023/02/17 11:24:02;;;;;;;15.65;11.73;;;;;;;13.42;74.24;99702.56;5012334;28;20049;-81
2023/02/17 11:26:33;;;;;;;20.67;12.60;;;;;;;13.42;73.75;99707.84;5012105;28;20486;-80
2023/02/17 11:29:15;;;;;;;15.63;12.60;;;;;;;13.43;73.17;99713.97;5012604;28;20046;-80
2023/02/17 11:31:41;;;;;;;13.43;11.98;;;;;;;13.48;74.23;99693.38;5012302;28;20049;-81
2023/02/17 11:34:20;;;;;;;15.68;12.32;;;;;;;13.44;72.66;99726.25;5012231;28;20054;-81
2023/02/17 11:36:57;;;;;;;15.30;12.82;;;;;;;13.45;72.53;99709.41;5011415;28;20054;-81